Time;durP1;ratioP1;P1;durP2;ratioP2;P2;SDS_P1;SDS_P2;PMS_P1;PMS_P2;Temp;Humidity;BMP_temperature;BMP_pressure;BME280_temperature;BME280_humidity;BME280_pressure;Samples;Min_cycle;Max_cycle;Signal;HPM_P1;HPM_P2
2023/02/24 00:01:38;;;;;;;;;;;7.10;99.90;;;;;;5096360;28;20387;-74
2023/02/24 00:04:08;;;;;;;;;;;7.10;99.90;;;;;;5114583;28;19935;-73
2023/02/24 00:06:35;;;;;;;;;;;7.10;99.90;;;;;;5114539;28;19948;-74
2023/02/24 00:09:09;;;;;;;;;;;7.00;99.90;;;;;;5114799;28;20423;-74
2023/02/24 00:11:36;;;;;;;;;;;7.00;99.90;;;;;;5114506;28;19957;-74
2023/02/24 00:14:05;;;;;;;;;;;7.00;99.90;;;;;;5114350;28;19963;-74
2023/02/24 00:16:31;;;;;;;;;;;6.90;99.90;;;;;;5114649;28;19968;-74
2023/02/24 00:18:57;;;;;;;;;;;7.00;99.90;;;;;;5114277;28;20408;-73
2023/02/24 00:21:22;;;;;;;;;;;7.10;99.90;;;;;;5114596;28;19979;-74
2023/02/24 00:23:48;;;;;;;;;;;7.10;99.90;;;;;;5114261;28;20463;-74
2023/02/24 00:26:14;;;;;;;;;;;7.10;99.90;;;;;;5114806;28;20012;-74
2023/02/24 00:28:39;;;;;;;;;;;7.10;99.90;;;;;;5095997;28;20374;-74
2023/02/24 00:31:07;;;;;;;;;;;7.10;99.90;;;;;;5114250;28;19942;-73
2023/02/24 00:33:33;;;;;;;;;;;7.10;99.90;;;;;;5114200;28;19946;-74
2023/02/24 00:36:08;;;;;;;;;;;7.10;99.90;;;;;;5114160;28;19957;-74
2023/02/24 00:38:37;;;;;;;;;;;7.10;99.90;;;;;;5114126;28;20393;-73
2023/02/24 00:41:14;;;;;;;;;;;7.10;99.90;;;;;;5114067;28;20466;-73
2023/02/24 00:43:45;;;;;;;;;;;7.10;99.90;;;;;;5114344;28;20027;-74
2023/02/24 00:46:24;;;;;;;;;;;7.10;99.90;;;;;;5095485;28;19992;-74
2023/02/24 00:48:53;;;;;;;;;;;7.10;99.90;;;;;;5114328;28;20296;-73
2023/02/24 00:51:24;;;;;;;;;;;7.00;99.90;;;;;;5095729;28;19949;-74
2023/02/24 00:53:56;;;;;;;;;;;7.10;99.90;;;;;;5114274;28;19945;-74
2023/02/24 00:56:22;;;;;;;;;;;7.10;99.90;;;;;;5114226;28;20447;-74
2023/02/24 00:58:48;;;;;;;;;;;7.10;99.90;;;;;;5114387;28;19951;-73
2023/02/24 01:01:15;;;;;;;;;;;7.10;99.90;;;;;;5115618;28;20047;-74
2023/02/24 01:03:41;;;;;;;;;;;7.10;99.90;;;;;;5099757;28;19962;-74
2023/02/24 01:06:07;;;;;;;;;;;7.10;99.90;;;;;;5117999;28;19955;-74
2023/02/24 01:08:35;;;;;;;;;;;7.10;99.90;;;;;;5118173;28;19951;-74
2023/02/24 01:13:45;;;;;;;;;;;7.10;99.90;;;;;;5117964;28;20009;-74
2023/02/24 01:16:17;;;;;;;;;;;7.10;99.90;;;;;;5118062;28;19951;-74
2023/02/24 01:18:48;;;;;;;;;;;7.20;99.90;;;;;;5117655;28;19951;-73
2023/02/24 01:21:18;;;;;;;;;;;7.20;99.90;;;;;;5117950;28;19996;-75
2023/02/24 01:23:50;;;;;;;;;;;7.20;99.90;;;;;;5117692;28;20410;-74
2023/02/24 01:26:16;;;;;;;;;;;7.20;99.90;;;;;;5118166;28;19971;-74
2023/02/24 01:28:41;;;;;;;;;;;7.20;99.90;;;;;;5117607;28;20318;-73
2023/02/24 01:31:08;;;;;;;;;;;7.20;99.90;;;;;;5117809;28;19950;-74
2023/02/24 01:33:36;;;;;;;;;;;7.10;99.90;;;;;;5117426;28;20430;-74
2023/02/24 01:36:13;;;;;;;;;;;7.10;99.90;;;;;;5117669;28;19951;-74
2023/02/24 01:38:41;;;;;;;;;;;7.10;99.90;;;;;;5117095;28;20000;-74
2023/02/24 01:41:08;;;;;;;;;;;7.10;99.90;;;;;;5117679;28;19945;-74
2023/02/24 01:43:53;;;;;;;;;;;7.20;99.90;;;;;;5117279;28;20427;-74
2023/02/24 01:46:22;;;;;;;;;;;7.20;99.90;;;;;;5117584;28;19951;-74
2023/02/24 01:48:49;;;;;;;;;;;7.20;99.90;;;;;;5117195;28;20419;-74
2023/02/24 01:51:15;;;;;;;;;;;7.20;99.90;;;;;;5117156;28;19988;-73
2023/02/24 01:53:41;;;;;;;;;;;7.20;99.90;;;;;;5117119;28;19965;-74
2023/02/24 01:56:06;;;;;;;;;;;7.20;99.90;;;;;;5117613;28;19950;-74
2023/02/24 01:58:32;;;;;;;;;;;7.30;99.90;;;;;;5098643;28;19954;-74
2023/02/24 02:00:58;;;;;;;;;;;7.30;99.90;;;;;;5117405;28;20017;-74
2023/02/24 02:03:31;;;;;;;;;;;7.20;99.90;;;;;;5116857;28;20410;-74
2023/02/24 02:05:59;;;;;;;;;;;7.20;99.90;;;;;;5117110;28;20000;-74
2023/02/24 02:08:26;;;;;;;;;;;7.20;99.90;;;;;;5117081;28;19972;-74
2023/02/24 02:10:57;;;;;;;;;;;7.30;99.90;;;;;;5117303;28;19949;-74
2023/02/24 02:13:24;;;;;;;;;;;7.30;99.90;;;;;;5116323;28;19963;-74
2023/02/24 02:15:56;;;;;;;;;;;7.30;99.90;;;;;;5116658;28;19949;-74
2023/02/24 02:18:28;;;;;;;;;;;7.30;99.90;;;;;;5116575;28;19950;-74
2023/02/24 02:21:08;;;;;;;;;;;7.30;99.90;;;;;;5117064;28;19969;-74
2023/02/24 02:23:46;;;;;;;;;;;7.30;99.90;;;;;;5116502;28;19952;-73
2023/02/24 02:26:34;;;;;;;;;;;7.40;99.90;;;;;;5116473;28;20003;-74
2023/02/24 02:29:20;;;;;;;;;;;7.30;99.90;;;;;;5116700;28;19950;-74
2023/02/24 02:32:06;;;;;;;;;;;7.30;99.90;;;;;;5098094;28;19952;-74
2023/02/24 02:34:32;;;;;;;;;;;7.30;99.90;;;;;;5064572;28;19952;-74
2023/02/24 02:37:18;;;;;;;;;;;7.30;99.90;;;;;;5116828;28;20021;-74
2023/02/24 02:39:45;;;;;;;;;;;;;;;;;;5115909;28;20462;-73
2023/02/24 02:42:13;;;;;;;;;;;;;;;;;;5116169;28;20411;-74
2023/02/24 02:44:39;;;;;;;;;;;;;;;;;;5097817;28;20329;-74
2023/02/24 02:47:05;;;;;;;;;;;;;;;;;;5116596;28;19947;-74
2023/02/24 02:49:31;;;;;;;;;;;;;;;;;;5116011;28;19958;-73
2023/02/24 02:51:57;;;;;;;;;;;;;;;;;;5115925;28;20440;-74
2023/02/24 02:54:23;;;;;;;;;;;;;;;;;;5115893;28;20039;-73
2023/02/24 02:56:49;;;;;;;;;;;;;;;;;;5116180;28;19996;-74
2023/02/24 02:59:21;;;;;;;;;;;;;;;;;;5115737;28;19968;-74
2023/02/24 03:01:47;;;;;;;;;;;;;;;;;;5116094;28;20044;-74
2023/02/24 03:04:15;;;;;;;;;;;;;;;;;;5115682;28;20054;-73
2023/02/24 03:06:41;;;;;;;;;;;;;;;;;;5116251;28;19954;-74
2023/02/24 03:09:14;;;;;;;;;;;;;;;;;;5115893;28;19947;-73
2023/02/24 03:11:40;;;;;;;;;;;;;;;;;;5115789;28;19958;-73
2023/02/24 03:14:06;;;;;;;;;;;;;;;;;;5115383;28;19965;-74
2023/02/24 03:16:32;;;;;;;;;;;;;;;;;;5115736;28;19956;-74
2023/02/24 03:18:58;;;;;;;;;;;;;;;;;;5115605;28;20104;-74
2023/02/24 03:21:24;;;;;;;;;;;;;;;;;;5115350;28;19950;-74
2023/02/24 03:23:50;;;;;;;;;;;;;;;;;;5114481;28;20036;-73
2023/02/24 03:26:16;;;;;;;;;;;;;;;;;;5115280;28;19996;-74
2023/02/24 03:28:43;;;;;;;;;;;;;;;;;;5115520;28;20042;-73
2023/02/24 03:31:09;;;;;;;;;;;;;;;;;;5115228;28;19980;-73
2023/02/24 03:33:36;;;;;;;;;;;;;;;;;;5115181;28;19958;-74
2023/02/24 03:36:01;;;;;;;;;;;;;;;;;;5115380;28;19989;-74
2023/02/24 03:38:29;;;;;;;;;;;;;;;;;;5114804;28;19976;-73
2023/02/24 03:40:55;;;;;;;;;;;;;;;;;;5096384;28;19974;-74
2023/02/24 03:43:21;;;;;;;;;;;;;;;;;;5115218;28;20040;-74
2023/02/24 03:45:47;;;;;;;;;;;;;;;;;;5114909;28;19993;-74
2023/02/24 03:48:13;;;;;;;;;;;;;;;;;;5114887;28;19950;-74
2023/02/24 03:50:39;;;;;;;;;;;;;;;;;;5115397;28;19986;-74
2023/02/24 03:53:05;;;;;;;;;;;;;;;;;;5115120;28;19997;-73
2023/02/24 03:55:32;;;;;;;;;;;;;;;;;;5115003;28;20298;-75
2023/02/24 03:58:01;;;;;;;;;;;;;;;;;;5115256;28;20411;-74
2023/02/24 04:00:33;;;;;;;;;;;;;;;;;;5096514;28;20003;-74
2023/02/24 04:02:58;;;;;;;;;;;;;;;;;;5115259;28;19977;-73
2023/02/24 04:05:26;;;;;;;;;;;;;;;;;;5114552;28;20422;-74
2023/02/24 04:07:52;;;;;;;;;;;;;;;;;;5115110;28;19951;-74
2023/02/24 04:10:18;;;;;;;;;;;;;;;;;;5114768;28;19956;-74
2023/02/24 04:12:45;;;;;;;;;;;;;;;;;;5114483;28;19949;-74
2023/02/24 04:15:11;;;;;;;;;;;;;;;;;;5114591;28;19973;-73
2023/02/24 04:17:37;;;;;;;;;;;;;;;;;;5114646;28;19960;-73
2023/02/24 04:20:12;;;;;;;;;;;;;;;;;;5114271;28;19974;-74
2023/02/24 04:22:39;;;;;;;;;;;;;;;;;;5114857;28;20012;-73
2023/02/24 04:25:12;;;;;;;;;;;;;;;;;;5114320;28;19956;-74
2023/02/24 04:27:37;;;;;;;;;;;;;;;;;;5114580;28;20358;-74
2023/02/24 04:30:03;;;;;;;;;;;;;;;;;;5114219;28;19949;-74
2023/02/24 04:32:29;;;;;;;;;;;;;;;;;;5114214;28;19956;-74
2023/02/24 04:34:55;;;;;;;;;;;;;;;;;;5114559;28;20455;-74
2023/02/24 04:37:21;;;;;;;;;;;;;;;;;;5114434;28;19949;-74
2023/02/24 04:39:47;;;;;;;;;;;;;;;;;;5113825;28;20013;-74
2023/02/24 04:42:15;;;;;;;;;;;;;;;;;;5114109;28;19997;-75
2023/02/24 04:44:41;;;;;;;;;;;;;;;;;;5114072;28;19986;-74
2023/02/24 04:47:08;;;;;;;;;;;;;;;;;;5096048;28;19960;-74
2023/02/24 04:49:35;;;;;;;;;;;;;;;;;;5114318;28;19956;-74
2023/02/24 04:52:01;;;;;;;;;;;;;;;;;;5114321;28;20044;-74
2023/02/24 04:54:28;;;;;;;;;;;;;;;;;;5114527;28;19989;-74
2023/02/24 04:56:54;;;;;;;;;;;;;;;;;;5113926;28;19950;-73
2023/02/24 04:59:20;;;;;;;;;;;;;;;;;;5114090;28;20371;-74
2023/02/24 05:01:46;;;;;;;;;;;;;;;;;;5113860;28;19949;-74
2023/02/24 05:04:12;;;;;;;;;;;;;;;;;;5113875;28;19949;-74
2023/02/24 05:06:39;;;;;;;;;;;;;;;;;;5095613;28;20341;-74
2023/02/24 05:09:12;;;;;;;;;;;;;;;;;;5113887;28;20036;-73
2023/02/24 05:11:41;;;;;;;;;;;;;;;;;;5114385;28;20422;-74
2023/02/24 05:14:06;;;;;;;;;;;;;;;;;;5113693;28;20445;-74
2023/02/24 05:16:33;;;;;;;;;;;;;;;;;;5113749;28;19947;-74
2023/02/24 05:21:43;;;;;;;;;;;;;;;;;;5113776;28;20312;-75
2023/02/24 05:24:10;;;;;;;;;;;;;;;;;;5113723;28;19950;-74
2023/02/24 05:26:36;;;;;;;;;;;;;;;;;;5113714;28;19950;-74
2023/02/24 05:29:02;;;;;;;;;;;;;;;;;;5113595;28;19948;-74
2023/02/24 05:31:28;;;;;;;;;;;;;;;;;;5113656;28;19947;-74
2023/02/24 05:33:54;;;;;;;;;;;;;;;;;;5113938;28;19955;-75
2023/02/24 05:36:20;;;;;;;;;;;;;;;;;;5113560;28;20325;-74
2023/02/24 05:38:46;;;;;;;;;;;;;;;;;;5113559;28;19985;-74
2023/02/24 05:41:21;;;;;;;;;;;;;;;;;;5113807;28;20001;-74
2023/02/24 05:43:51;;;;;;;;;;;;;;;;;;5113486;28;19949;-74
2023/02/24 05:46:18;;;;;;;;;;;;;;;;;;5113877;28;19951;-74
2023/02/24 05:48:44;;;;;;;;;;;;;;;;;;5117245;28;19949;-74
2023/02/24 05:51:11;;;;;;;;;;;;;;;;;;5117154;28;20299;-74
2023/02/24 05:53:40;;;;;;;;;;;;;;;;;;5117167;28;19947;-75
2023/02/24 05:56:06;;;;;;;;;;;;;;;;;;5117073;28;20390;-74
2023/02/24 05:58:31;;;;;;;;;;;;;;;;;;5117587;28;19951;-75
2023/02/24 06:01:04;;;;;;;;;;;;;;;;;;5117201;28;20106;-74
2023/02/24 06:03:34;;;;;;;;;;;;;;;;;;5117186;28;19991;-74
2023/02/24 06:06:07;;;;;;;;;;;;;;;;;;5098578;28;19997;-74
2023/02/24 06:08:40;;;;;;;;;;;;;;;;;;5117184;28;20029;-74
2023/02/24 06:11:07;;;;;;;;;;;;;;;;;;5098271;28;20429;-75
2023/02/24 06:13:33;;;;;;;;;;;;;;;;;;5116703;28;19999;-74
2023/02/24 06:15:59;;;;;;;;;;;;;;;;;;5117280;28;20390;-74
2023/02/24 06:18:25;;;;;;;;;;;;;;;;;;5116996;28;20039;-74
2023/02/24 06:20:52;;;;;;;;;;;;;;;;;;5116572;28;19975;-74
2023/02/24 06:23:18;;;;;;;;;;;;;;;;;;5116604;28;20042;-74
2023/02/24 06:25:44;;;;;;;;;;;;;;;;;;5116563;28;19954;-74
2023/02/24 06:28:10;;;;;;;;;;;;;;;;;;5116488;28;19950;-74
2023/02/24 06:30:36;;;;;;;;;;;;;;;;;;5117038;28;20033;-74
2023/02/24 06:33:04;;;;;;;;;;;;;;;;;;5116703;28;19949;-74
2023/02/24 06:35:31;;;;;;;;;;;;;;;;;;5116899;28;20035;-74
2023/02/24 06:37:57;;;;;;;;;;;;;;;;;;5116331;28;19951;-75
2023/02/24 06:40:23;;;;;;;;;;;;;;;;;;5115766;28;19986;-74
2023/02/24 06:42:49;;;;;;;;;;;;;;;;;;5116491;28;19952;-74
2023/02/24 06:45:15;;;;;;;;;;;;;;;;;;5116166;28;20393;-74
2023/02/24 06:47:41;;;;;;;;;;;;;;;;;;5116684;28;19956;-75
2023/02/24 06:50:08;;;;;;;;;;;;;;;;;;5116028;28;19955;-74
2023/02/24 06:52:35;;;;;;;;;;;;;;;;;;5097731;28;20360;-74
2023/02/24 06:55:03;;;;;;;;;;;;;;;;;;5115898;28;20004;-74
2023/02/24 06:57:31;;;;;;;;;;;;;;;;;;5116249;28;19953;-74
2023/02/24 06:59:58;;;;;;;;;;;;;;;;;;5115792;28;19992;-74
2023/02/24 07:02:28;;;;;;;;;;;;;;;;;;5116450;28;20283;-74
2023/02/24 07:04:57;;;;;;;;;;;;;;;;;;5115788;28;20404;-73
2023/02/24 07:07:23;;;;;;;;;;;;;;;;;;5115718;28;19949;-75
2023/02/24 07:09:50;;;;;;;;;;;;;;;;;;5115982;28;19961;-74
2023/02/24 07:12:19;;;;;;;;;;;;;;;;;;5115993;28;19956;-74
2023/02/24 07:14:49;;;;;;;;;;;;;;;;;;5115650;28;19971;-74
2023/02/24 07:17:17;;;;;;;;;;;;;;;;;;5116115;28;20287;-74
2023/02/24 07:19:43;;;;;;;;;;;;;;;;;;5115454;28;20417;-72
2023/02/24 07:22:09;;;;;;;;;;;;;;;;;;5116033;28;19952;-73
2023/02/24 07:24:35;;;;;;;;;;;;;;;;;;5115711;28;20002;-73
2023/02/24 07:27:01;;;;;;;;;;;;;;;;;;5115370;28;19956;-74
2023/02/24 07:29:27;;;;;;;;;;;;;;;;;;5115356;28;19948;-73
2023/02/24 07:31:56;;;;;;;;;;;;;;;;;;5115504;28;19950;-73
2023/02/24 07:34:23;;;;;;;;;;;;;;;;;;5115481;28;19972;-73
2023/02/24 07:36:49;;;;;;;;;;;;;;;;;;5115163;28;19952;-73
2023/02/24 07:39:15;;;;;;;;;;;;;;;;;;5115023;28;19993;-73
2023/02/24 07:41:45;;;;;;;;;;;;;;;;;;5115055;28;19950;-73
2023/02/24 07:44:11;;;;;;;;;;;;;;;;;;5115300;28;20030;-73
2023/02/24 07:46:37;;;;;;;;;;;;;;;;;;5114998;28;19950;-73
2023/02/24 07:49:03;;;;;;;;;;;;;;;;;;5115553;28;20508;-73
2023/02/24 07:51:29;;;;;;;;;;;;;;;;;;5115197;28;19961;-73
2023/02/24 07:53:57;;;;;;;;;;;;;;;;;;5114867;28;19949;-73
2023/02/24 07:56:26;;;;;;;;;;;;;;;;;;5096531;28;20387;-73
2023/02/24 07:58:58;;;;;;;;;;;;;;;;;;5115243;28;19951;-73
2023/02/24 08:01:23;;;;;;;;;;;;;;;;;;5115027;28;19950;-73
2023/02/24 08:03:50;;;;;;;;;;;;;;;;;;5115216;28;19998;-73
2023/02/24 08:06:25;;;;;;;;;;;;;;;;;;5114662;28;19952;-73
2023/02/24 08:08:57;;;;;;;;;;;;;;;;;;5114872;28;19997;-73
2023/02/24 08:11:23;;;;;;;;;;;;;;;;;;5114312;28;20398;-75
2023/02/24 08:13:49;;;;;;;;;;;;;;;;;;5115046;28;19965;-73
2023/02/24 08:16:15;;;;;;;;;;;;;;;;;;5114787;28;20086;-73
2023/02/24 08:18:47;;;;;;;;;;;;;;;;;;5114458;28;20305;-73
2023/02/24 08:21:13;;;;;;;;;;;;;;;;;;5114699;28;19971;-73
2023/02/24 08:23:43;;;;;;;;;;;;;;;;;;5114363;28;19949;-74
2023/02/24 08:26:11;;;;;;;;;;;;;;;;;;5114921;28;19952;-73
2023/02/24 08:28:38;;;;;;;;;;;;;;;;;;5114283;28;20040;-73
2023/02/24 08:31:04;;;;;;;;;;;;;;;;;;5114530;28;19947;-74
2023/02/24 08:33:30;;;;;;;;;;;;;;;;;;5114234;28;19955;-73
2023/02/24 08:36:02;;;;;;;;;;;;;;;;;;5114225;28;20458;-74
2023/02/24 08:38:38;;;;;;;;;;;;;;;;;;5114497;28;19949;-73
2023/02/24 08:41:04;;;;;;;;;;;;;;;;;;5095636;28;19973;-73
2023/02/24 08:45:56;;;;;;;;;;;;;;;;;;5114705;28;19950;-67
2023/02/24 08:48:25;;;;;;;;;;;;;;;;;;5114081;28;19950;-69
2023/02/24 08:50:51;;;;;;;;;;;;;;;;;;5114084;28;19955;-68
2023/02/24 08:53:17;;;;;;;;;;;;;;;;;;5114168;28;19950;-67
2023/02/24 08:55:43;;;;;;;;;;;;;;;;;;5113894;28;19950;-67
2023/02/24 08:58:16;;;;;;;;;;;;;;;;;;5114507;28;19950;-68
2023/02/24 09:00:48;;;;;;;;;;;;;;;;;;5114226;28;19971;-68
2023/02/24 09:03:26;;;;;;;;;;;;;;;;;;5113941;28;20000;-68
2023/02/24 09:05:53;;;;;;;;;;;;;;;;;;5114288;28;19948;-68
2023/02/24 09:08:23;;;;;;;;;;;;;;;;;;5113938;28;19962;-68
2023/02/24 09:10:48;;;;;;;;;;;;;;;;;;5095354;28;20019;-67
2023/02/24 09:13:14;;;;;;;;;;;;;;;;;;5114341;28;20355;-67
2023/02/24 09:15:40;;;;;;;;;;;;;;;;;;5114110;28;19960;-67
2023/02/24 09:18:06;;;;;;;;;;;;;;;;;;5113866;28;19990;-67
2023/02/24 09:20:54;;;;;;;;;;;;;;;;;;5113696;28;19978;-68
2023/02/24 09:23:28;;;;;;;;;;;;;;;;;;5117905;28;20053;-68
2023/02/24 09:25:54;;;;;;;;;;;;;;;;;;5117762;28;19949;-67
2023/02/24 09:28:23;;;;;;;;;;;;;;;;;;5117723;28;19959;-67
2023/02/24 09:30:52;;;;;;;;;;;;;;;;;;5118200;28;20471;-68
2023/02/24 09:33:19;;;;;;;;;;;;;;;;;;5117530;28;20393;-69
2023/02/24 09:35:45;;;;;;;;;;;;;;;;;;5118028;28;20029;-69
2023/02/24 09:38:15;;;;;;;;;;;;;;;;;;5117487;28;19958;-70
2023/02/24 09:40:47;;;;;;;;;;;;;;;;;;5116917;28;19985;-70
2023/02/24 09:43:19;;;;;;;;;;;;;;;;;;5117703;28;19950;-70
2023/02/24 09:45:45;;;;;;;;;;;;;;;;;;5117334;28;19950;-70
2023/02/24 09:48:11;;;;;;;;;;;;;;;;;;5117576;28;19956;-69
2023/02/24 09:50:45;;;;;;;;;;;;;;;;;;5117253;28;19950;-69
2023/02/24 09:53:16;;;;;;;;;;;;;;;;;;5098745;28;20433;-68
2023/02/24 09:55:44;;;;;;;;;;;;;;;;;;5117171;28;19949;-68
2023/02/24 10:00:42;;;;;;;;;;;;;;;;;;5117240;28;20520;-67
2023/02/24 10:03:18;;;;;;;;;;;;;;;;;;5117582;28;20023;-67
2023/02/24 10:05:44;;;;;;;;;;;;;;;;;;5117313;28;19950;-68
2023/02/24 10:08:12;;;;;;;;;;;;;;;;;;5117512;28;19951;-68
2023/02/24 10:10:38;;;;;;;;;;;;;;;;;;5098545;28;20423;-68
2023/02/24 10:13:11;;;;;;;;;;;;;;;;;;5117308;28;20044;-67
2023/02/24 10:15:57;;;;;;;;;;;;;;;;;;5116797;28;19954;-67
2023/02/24 10:18:26;;;;;;;;;;;;;;;;;;5098460;28;19977;-67
2023/02/24 10:20:52;;;;;;;;;;;;;;;;;;5117167;28;19970;-68
2023/02/24 10:23:28;;;;;;;;;;;;;;;;;;5116624;28;20070;-68
2023/02/24 10:25:54;;;;;;;;;;;;;;;;;;5116893;28;20409;-68
2023/02/24 10:28:21;;;;;;;;;;;;;;;;;;5116502;28;19995;-68
2023/02/24 10:30:47;;;;;;;;;;;;;;;;;;5116728;28;20375;-68
2023/02/24 10:33:13;;;;;;;;;;;;;;;;;;5097769;28;19975;-67
2023/02/24 10:35:39;;;;;;;;;;;;;;;;;;5116409;28;19953;-67
2023/02/24 10:38:05;;;;;;;;;;;;;;;;;;5116676;28;19956;-68
2023/02/24 10:40:45;;;;;;;;;;;;;;;;;;5115817;28;20092;-67
2023/02/24 10:43:16;;;;;;;;;;;;;;;;;;5116795;28;19948;-67
2023/02/24 10:45:43;;;;;;;;;;;;;;;;;;5116218;28;20004;-67
2023/02/24 10:48:09;;;;;;;;;;;;;;;;;;5116139;28;20412;-68
2023/02/24 10:50:42;;;;;;;;;;;;;;;;;;5116656;28;20003;-68
2023/02/24 10:58:14;;;;;;;;;;;;;;;;;;5116866;28;19954;-68
2023/02/24 11:03:59;;;;;;;;;;;;;;;;;;5115931;28;19956;-67
2023/02/24 11:06:29;;;;;;;;;;;;;;;;;;5115137;28;20324;-67
2023/02/24 11:09:01;;;;;;;;;;;;;;;;;;5116446;28;20039;-67
2023/02/24 11:11:32;;;;;;;;;;;;;;;;;;5115745;28;19960;-67
2023/02/24 11:19:28;;;;;;;;;;;;;;;;;;5115574;28;20002;-68
2023/02/24 11:21:53;;;;;;;;;;;;;;;;;;5116081;28;20348;-67
2023/02/24 11:24:19;;;;;;;;;;;;;;;;;;5115412;28;19958;-67
2023/02/24 11:26:45;;;;;;;;;;;;;;;;;;5115685;28;19990;-67
2023/02/24 11:29:12;;;;;;;;;;;;;;;;;;5115639;28;19993;-67
2023/02/24 11:31:38;;;;;;;;;;;;;;;;;;5115316;28;19971;-67
2023/02/24 11:34:04;;;;;;;;;;;;;;;;;;5115222;28;20391;-67
2023/02/24 11:36:32;;;;;;;;;;;;;;;;;;5115196;28;19956;-67
2023/02/24 11:38:57;;;;;;;;;;;;;;;;;;5115138;28;20043;-67
2023/02/24 11:41:24;;;;;;;;;;;;;;;;;;5115007;28;20067;-67
2023/02/24 11:43:50;;;;;;;;;;;;;;;;;;5115373;28;20453;-67
2023/02/24 11:46:16;;;;;;;;;;;;;;;;;;5114603;28;19952;-67
2023/02/24 11:48:42;;;;;;;;;;;;;;;;;;5115245;28;19998;-67
2023/02/24 11:51:08;;;;;;;;;;;;;;;;;;5114958;28;19986;-67
2023/02/24 11:53:34;;;;;;;;;;;;;;;;;;5114866;28;19949;-67
2023/02/24 11:56:00;;;;;;;;;;;;;;;;;;5114793;28;20400;-67
2023/02/24 11:58:26;;;;;;;;;;;;;;;;;;5114784;28;19955;-67
2023/02/24 12:00:51;;;;;;;;;;;;;;;;;;5096437;28;19972;-67
2023/02/24 12:03:17;;;;;;;;;;;;;;;;;;5115302;28;19949;-67
2023/02/24 12:05:43;;;;;;;;;;;;;;;;;;5114677;28;19987;-67
2023/02/24 12:08:09;;;;;;;;;;;;;;;;;;5114662;28;19957;-67
2023/02/24 12:10:35;;;;;;;;;;;;;;;;;;5114578;28;19953;-67
2023/02/24 12:13:01;;;;;;;;;;;;;;;;;;5114550;28;20347;-67
2023/02/24 12:15:28;;;;;;;;;;;;;;;;;;5114559;28;19951;-67
2023/02/24 12:17:56;;;;;;;;;;;;;;;;;;5114488;28;20003;-67
2023/02/24 12:20:22;;;;;;;;;;;;;;;;;;5114675;28;19974;-67
2023/02/24 12:22:49;;;;;;;;;;;;;;;;;;5114393;28;19949;-67
2023/02/24 12:25:15;;;;;;;;;;;;;;;;;;5114645;28;20489;-67
2023/02/24 12:27:41;;;;;;;;;;;;;;;;;;5114635;28;19952;-67
2023/02/24 12:30:21;;;;;;;;;;;;;;;;;;5114304;28;20358;-67
2023/02/24 12:32:48;;;;;;;;;;;;;;;;;;5095828;28;20042;-67
2023/02/24 12:35:18;;;;;;;;;;;;;;;;;;5114279;28;19948;-67
2023/02/24 12:37:44;;;;;;;;;;;;;;;;;;5095963;28;19982;-67
2023/02/24 12:40:10;;;;;;;;;;;;;;;;;;5113954;28;19985;-67
2023/02/24 12:42:37;;;;;;;;;;;;;;;;;;5114434;28;19949;-67
2023/02/24 12:45:02;;;;;;;;;;;;;;;;;;5114134;28;19948;-67
2023/02/24 12:47:30;;;;;;;;;;;;;;;;;;5114108;28;19987;-67
2023/02/24 12:49:57;;;;;;;;;;;;;;;;;;5114393;28;19999;-67
2023/02/24 12:52:23;;;;;;;;;;;;;;;;;;5095592;28;20399;-67
2023/02/24 12:54:49;;;;;;;;;;;;;;;;;;5114608;28;19959;-67
2023/02/24 12:57:15;;;;;;;;;;;;;;;;;;5117612;28;20429;-67
2023/02/24 12:59:41;;;;;;;;;;;;;;;;;;5118783;28;20301;-67
2023/02/24 13:02:07;;;;;;;;;;;;;;;;;;5118249;28;19956;-67
2023/02/24 13:04:33;;;;;;;;;;;;;;;;;;5118456;28;19957;-67
2023/02/24 13:06:59;;;;;;;;;;;;;;;;;;5118154;28;19953;-67
2023/02/24 13:09:25;;;;;;;;;;;;;;;;;;5118066;28;19997;-67
2023/02/24 13:11:51;;;;;;;;;;;;;;;;;;5118278;28;19953;-67
2023/02/24 13:14:17;;;;;;;;;;;;;;;;;;5117932;28;19965;-67
2023/02/24 13:16:43;;;;;;;;;;;;;;;;;;5117925;28;20450;-67
2023/02/24 13:19:08;;;;;;;;;;;;;;;;;;5117883;28;20047;-67
2023/02/24 13:21:34;;;;;;;;;;;;;;;;;;5118132;28;19948;-67
2023/02/24 13:24:00;;;;;;;;;;;;;;;;;;5117794;28;20404;-67
2023/02/24 13:26:26;;;;;;;;;;;;;;;;;;5118310;28;19949;-67
2023/02/24 13:28:52;;;;;;;;;;;;;;;;;;5117706;28;19954;-67
2023/02/24 13:31:22;;;;;;;;;;;;;;;;;;5117647;28;20036;-67
2023/02/24 13:33:48;;;;;;;;;;;;;;;;;;5117623;28;19952;-67
2023/02/24 13:36:14;;;;;;;;;;;;;;;;;;5117500;28;19948;-67
2023/02/24 13:38:40;;;;;;;;;;;;;;;;;;5117564;28;19954;-67
2023/02/24 13:41:06;;;;;;;;;;;;;;;;;;5118050;28;19996;-68
2023/02/24 13:43:32;;;;;;;;;;;;;;;;;;5117337;28;20393;-68
2023/02/24 13:45:58;;;;;;;;;;;;;;;;;;5117702;28;20105;-68
2023/02/24 13:48:24;;;;;;;;;;;;;;;;;;5117370;28;20409;-68
2023/02/24 13:50:50;;;;;;;;;;;;;;;;;;5117813;28;20003;-68
2023/02/24 13:53:16;;;;;;;;;;;;;;;;;;5117430;28;20011;-68
2023/02/24 13:55:42;;;;;;;;;;;;;;;;;;5117143;28;20450;-68
2023/02/24 13:58:08;;;;;;;;;;;;;;;;;;5117426;28;20049;-68
2023/02/24 14:00:34;;;;;;;;;;;;;;;;;;5117323;28;20011;-68
2023/02/24 14:03:00;;;;;;;;;;;;;;;;;;5117028;28;19950;-68
2023/02/24 14:05:26;;;;;;;;;;;;;;;;;;5117555;28;20398;-68
2023/02/24 14:07:52;;;;;;;;;;;;;;;;;;5116496;28;20055;-68
2023/02/24 14:10:18;;;;;;;;;;;;;;;;;;5116946;28;20037;-68
2023/02/24 14:12:44;;;;;;;;;;;;;;;;;;5116920;28;19953;-68
2023/02/24 14:15:10;;;;;;;;;;;;;;;;;;5117358;28;19965;-68
2023/02/24 14:17:36;;;;;;;;;;;;;;;;;;5117021;28;19991;-68
2023/02/24 14:20:02;;;;;;;;;;;;;;;;;;5116938;28;19968;-68
2023/02/24 14:22:28;;;;;;;;;;;;;;;;;;5116687;28;20405;-68
2023/02/24 14:24:54;;;;;;;;;;;;;;;;;;5116637;28;19947;-68
2023/02/24 14:27:20;;;;;;;;;;;;;;;;;;5116614;28;20386;-68
2023/02/24 14:29:46;;;;;;;;;;;;;;;;;;5116556;28;19954;-68
2023/02/24 14:32:11;;;;;;;;;;;;;;;;;;5116998;28;20442;-68
2023/02/24 14:34:37;;;;;;;;;;;;;;;;;;5116293;28;19950;-67
2023/02/24 14:37:03;;;;;;;;;;;;;;;;;;5116886;28;20365;-68
2023/02/24 14:39:29;;;;;;;;;;;;;;;;;;5116224;28;19995;-68
2023/02/24 14:41:56;;;;;;;;;;;;;;;;;;5116307;28;19956;-68
2023/02/24 14:44:22;;;;;;;;;;;;;;;;;;5116572;28;19999;-68
2023/02/24 14:46:48;;;;;;;;;;;;;;;;;;5116232;28;19948;-68
2023/02/24 14:49:14;;;;;;;;;;;;;;;;;;5116143;28;20394;-68
2023/02/24 14:51:40;;;;;;;;;;;;;;;;;;5116674;28;19956;-68
2023/02/24 14:54:06;;;;;;;;;;;;;;;;;;5116047;28;19956;-68
2023/02/24 14:56:32;;;;;;;;;;;;;;;;;;5116585;28;20301;-68
2023/02/24 14:58:57;;;;;;;;;;;;;;;;;;5115997;28;19954;-68
2023/02/24 15:01:23;;;;;;;;;;;;;;;;;;5116121;28;20019;-68
2023/02/24 15:03:49;;;;;;;;;;;;;;;;;;5115851;28;19952;-68
2023/02/24 15:06:15;;;;;;;;;;;;;;;;;;5116427;28;20384;-68
2023/02/24 15:08:41;;;;;;;;;;;;;;;;;;5115793;28;20389;-68
2023/02/24 15:11:07;;;;;;;;;;;;;;;;;;5115773;28;20460;-68
2023/02/24 15:13:33;;;;;;;;;;;;;;;;;;5116048;28;20334;-68
2023/02/24 15:15:59;;;;;;;;;;;;;;;;;;5115928;28;19951;-68
2023/02/24 15:18:25;;;;;;;;;;;;;;;;;;5115425;28;19972;-68
2023/02/24 15:20:51;;;;;;;;;;;;;;;;;;5114541;28;20429;-68
2023/02/24 15:23:17;;;;;;;;;;;;;;;;;;5115986;28;19956;-68
2023/02/24 15:25:42;;;;;;;;;;;;;;;;;;5115444;28;19946;-68
2023/02/24 15:28:08;;;;;;;;;;;;;;;;;;5115644;28;19985;-68
2023/02/24 15:30:34;;;;;;;;;;;;;;;;;;5115607;28;19957;-68
2023/02/24 15:33:00;;;;;;;;;;;;;;;;;;5116163;28;20395;-68
2023/02/24 15:35:26;;;;;;;;;;;;;;;;;;5115555;28;19952;-68
2023/02/24 15:37:53;;;;;;;;;;;;;;;;;;5115778;28;19947;-68
2023/02/24 15:40:20;;;;;;;;;;;;;;;;;;5114884;28;19984;-68
2023/02/24 15:42:46;;;;;;;;;;;;;;;;;;5115108;28;20325;-68
2023/02/24 15:45:12;;;;;;;;;;;;;;;;;;5115603;28;19955;-68
2023/02/24 15:47:38;;;;;;;;;;;;;;;;;;5115015;28;19957;-68
2023/02/24 15:50:04;;;;;;;;;;;;;;;;;;5114943;28;19997;-68
2023/02/24 15:52:29;;;;;;;;;;;;;;;;;;5114917;28;19952;-68
2023/02/24 15:54:58;;;;;;;;;;;;;;;;;;5115156;28;19993;-68
2023/02/24 15:57:24;;;;;;;;;;;;;;;;;;5115106;28;20411;-68
2023/02/24 15:59:51;;;;;;;;;;;;;;;;;;5114733;28;19978;-68
2023/02/24 16:02:18;;;;;;;;;;;;;;;;;;5096297;28;19954;-68
2023/02/24 16:04:44;;;;;;;;;;;;;;;;;;5114988;28;19997;-68
2023/02/24 16:07:10;;;;;;;;;;;;;;;;;;5114931;28;19954;-68
2023/02/24 16:09:35;;;;;;;;;;;;;;;;;;5114901;28;19957;-68
2023/02/24 16:12:01;;;;;;;;;;;;;;;;;;5114604;28;19958;-68
2023/02/24 16:14:27;;;;;;;;;;;;;;;;;;5114643;28;19962;-68
2023/02/24 16:16:53;;;;;;;;;;;;;;;;;;5114536;28;20311;-68
2023/02/24 16:19:19;;;;;;;;;;;;;;;;;;5114387;28;19990;-68
2023/02/24 16:21:45;;;;;;;;;;;;;;;;;;5114660;28;20344;-68
2023/02/24 16:24:11;;;;;;;;;;;;;;;;;;5114519;28;19957;-67
2023/02/24 16:26:37;;;;;;;;;;;;;;;;;;5114749;28;19946;-68
2023/02/24 16:29:03;;;;;;;;;;;;;;;;;;5114705;28;20430;-68
2023/02/24 16:31:29;;;;;;;;;;;;;;;;;;5114029;28;19951;-68
2023/02/24 16:33:55;;;;;;;;;;;;;;;;;;5114632;28;19957;-68
2023/02/24 16:36:20;;;;;;;;;;;;;;;;;;5114499;28;19950;-68
2023/02/24 16:38:49;;;;;;;;;;;;;;;;;;5113963;28;19988;-68
2023/02/24 16:41:17;;;;;;;;;;;;;;;;;;5114252;28;20291;-68
2023/02/24 16:43:43;;;;;;;;;;;;;;;;;;5095905;28;20490;-68
2023/02/24 16:46:09;;;;;;;;;;;;;;;;;;5114707;28;19959;-68
2023/02/24 16:48:36;;;;;;;;;;;;;;;;;;5114129;28;19961;-68